Tupelo, Mississippi
Current Conditions -  °F | °C
As of 1:53 AM on Thursday 29 Jan 2015 (Local Time) from KTUP Reporting Station
Clear Clear  
Wind Chill: 39°   Ceiling: Unl
Heat Index: 44°   Visibility: 10mi
Dew Point: 31°   Wind: 9mph
Humidity: 60%   Direction: 200°SSW
Pressure: 30.15"   Gusts: NA
Location:  34.26°N, 88.71°W
Report Text: KTUP 290753Z AUTO 20008KT 10SM CLR 07/M01 A3015 RMK AO2 SLP210 T00671006
Loading
Personal Weather Stations






























Interactive Weather Map New forecast layout! Learn more

10-Day Weather Forecast

Advertisements
Track Severe Weather on mobile